createdAt,value
2023-05-22T00:00:09.054Z,35.93
2023-05-22T00:01:09.054Z,36.42
2023-05-22T00:02:09.073Z,36.74
2023-05-22T00:03:09.061Z,36.58
2023-05-22T00:04:09.103Z,36.74
2023-05-22T00:05:09.042Z,36.58
2023-05-22T00:06:09.004Z,36.74
2023-05-22T00:07:08.987Z,36.90
2023-05-22T00:08:09.010Z,36.58
2023-05-22T00:09:09.011Z,36.58
2023-05-22T00:10:08.994Z,36.58
2023-05-22T00:11:08.958Z,36.74
2023-05-22T00:12:08.995Z,36.74
2023-05-22T00:13:08.981Z,36.25
2023-05-22T00:14:08.937Z,36.74
2023-05-22T00:15:08.926Z,36.58
2023-05-22T00:16:08.924Z,37.06
2023-05-22T00:17:09.038Z,36.42
2023-05-22T00:18:08.954Z,36.90
2023-05-22T00:19:08.956Z,36.90
2023-05-22T00:20:08.919Z,37.38
2023-05-22T00:21:08.893Z,37.38
2023-05-22T00:22:08.898Z,37.06
2023-05-22T00:23:08.904Z,37.06
2023-05-22T00:24:08.897Z,37.06
2023-05-22T00:25:08.876Z,37.38
2023-05-22T00:26:08.855Z,37.71
2023-05-22T00:27:08.842Z,37.38
2023-05-22T00:28:09.580Z,37.22
2023-05-22T00:29:08.850Z,38.03
2023-05-22T00:30:08.834Z,37.87
2023-05-22T00:31:08.875Z,36.74
2023-05-22T00:32:08.822Z,36.90
2023-05-22T00:33:08.873Z,36.90
2023-05-22T00:34:08.828Z,36.74
2023-05-22T00:35:08.807Z,37.22
2023-05-22T00:36:08.835Z,37.54
2023-05-22T00:37:08.789Z,36.74
2023-05-22T00:38:08.796Z,36.74
2023-05-22T00:39:08.755Z,37.06
2023-05-22T00:40:08.791Z,37.22
2023-05-22T00:41:08.778Z,37.06
2023-05-22T00:42:08.748Z,36.90
2023-05-22T00:43:08.994Z,37.22
2023-05-22T00:44:08.739Z,37.71
2023-05-22T00:45:08.719Z,37.22
2023-05-22T00:46:08.788Z,37.38
2023-05-22T00:47:08.725Z,37.38
2023-05-22T00:48:08.739Z,37.38
2023-05-22T00:49:08.715Z,37.71
2023-05-22T00:50:08.712Z,37.71
2023-05-22T00:51:08.698Z,37.71
2023-05-22T00:52:09.774Z,36.74
2023-05-22T00:53:08.715Z,37.54
2023-05-22T00:54:08.702Z,37.38
2023-05-22T00:55:08.702Z,37.87
2023-05-22T00:56:08.653Z,37.54
2023-05-22T00:57:08.642Z,37.71
2023-05-22T00:58:08.666Z,37.71
2023-05-22T00:59:08.680Z,37.87
2023-05-22T01:00:08.641Z,37.38
2023-05-22T01:01:08.664Z,37.71
2023-05-22T01:02:08.800Z,37.71
2023-05-22T01:03:08.703Z,39.16
2023-05-22T01:04:08.694Z,37.54
2023-05-22T01:05:08.674Z,37.22
2023-05-22T01:06:08.591Z,37.38
2023-05-22T01:07:08.656Z,37.71
2023-05-22T01:08:08.678Z,37.54
2023-05-22T01:09:08.571Z,37.54
2023-05-22T01:10:08.563Z,37.54
2023-05-22T01:11:08.535Z,37.71
2023-05-22T01:12:08.540Z,37.87
2023-05-22T01:13:08.625Z,38.03
2023-05-22T01:14:08.556Z,37.54
2023-05-22T01:15:08.507Z,37.87
2023-05-22T01:16:08.555Z,38.03
2023-05-22T01:17:08.524Z,38.03
2023-05-22T01:18:08.553Z,38.19
2023-05-22T01:19:08.522Z,38.19
2023-05-22T01:20:08.475Z,37.54
2023-05-22T01:21:08.564Z,37.87
2023-05-22T01:22:08.548Z,37.54
2023-05-22T01:23:08.474Z,38.03
2023-05-22T01:24:08.469Z,38.03
2023-05-22T01:25:08.445Z,37.54
2023-05-22T01:26:08.436Z,37.87
2023-05-22T01:27:08.463Z,37.87
2023-05-22T01:28:08.438Z,37.54
2023-05-22T01:29:09.118Z,37.87
2023-05-22T01:30:08.416Z,37.54
2023-05-22T01:31:08.433Z,38.03
2023-05-22T01:32:08.427Z,37.71
2023-05-22T01:33:08.473Z,37.54
2023-05-22T01:34:08.531Z,37.54
2023-05-22T01:35:08.397Z,37.71
2023-05-22T01:36:08.409Z,37.87
2023-05-22T01:37:08.474Z,38.19
2023-05-22T01:38:08.391Z,38.03
2023-05-22T01:39:08.361Z,38.03
2023-05-22T01:40:08.380Z,38.03
2023-05-22T01:41:08.400Z,38.03
2023-05-22T01:42:08.332Z,38.19
2023-05-22T01:43:08.330Z,37.71
2023-05-22T01:44:08.370Z,37.87
2023-05-22T01:45:08.354Z,37.54
2023-05-22T01:46:08.386Z,37.71
2023-05-22T01:47:08.315Z,37.87
2023-05-22T01:48:08.350Z,37.71
2023-05-22T01:49:08.280Z,38.03
2023-05-22T01:50:08.302Z,38.03
2023-05-22T01:51:08.265Z,38.19
2023-05-22T01:52:08.280Z,38.03
2023-05-22T01:53:08.290Z,37.71
2023-05-22T01:54:08.238Z,38.03
2023-05-22T01:55:08.293Z,38.03
2023-05-22T01:56:08.265Z,37.87
2023-05-22T01:57:08.253Z,38.03
2023-05-22T01:58:08.231Z,38.19
2023-05-22T01:59:08.210Z,38.35
2023-05-22T02:00:08.224Z,39.48
2023-05-22T02:01:08.305Z,38.99
2023-05-22T02:02:08.229Z,38.19
2023-05-22T02:03:08.294Z,38.19
2023-05-22T02:04:08.211Z,38.35
2023-05-22T02:05:08.202Z,38.67
2023-05-22T02:06:08.184Z,39.16
2023-05-22T02:07:08.853Z,38.67
2023-05-22T02:08:08.155Z,38.51
2023-05-22T02:09:08.243Z,38.67
2023-05-22T02:10:08.124Z,38.83
2023-05-22T02:11:08.136Z,38.51
2023-05-22T02:12:08.137Z,38.99
2023-05-22T02:13:08.118Z,38.19
2023-05-22T02:14:08.182Z,38.03
2023-05-22T02:15:08.102Z,39.16
2023-05-22T02:16:08.161Z,38.51
2023-05-22T02:17:08.655Z,38.19
2023-05-22T02:18:08.123Z,38.67
2023-05-22T02:19:08.197Z,38.19
2023-05-22T02:20:08.086Z,37.54
2023-05-22T02:21:08.061Z,38.35
2023-05-22T02:22:08.072Z,38.19
2023-05-22T02:23:08.062Z,38.99
2023-05-22T02:24:08.059Z,39.32
2023-05-22T02:25:08.033Z,39.16
2023-05-22T02:26:08.031Z,39.48
2023-05-22T02:27:08.026Z,39.64
2023-05-22T02:28:08.064Z,39.48
2023-05-22T02:29:07.990Z,39.32
2023-05-22T02:30:08.010Z,39.96
2023-05-22T02:31:08.058Z,39.96
2023-05-22T02:32:08.013Z,39.80
2023-05-22T02:33:08.051Z,39.32
2023-05-22T02:34:07.992Z,40.44
2023-05-22T02:35:07.963Z,40.28
2023-05-22T02:36:07.969Z,41.73
2023-05-22T02:37:07.974Z,41.73
2023-05-22T02:38:07.959Z,41.41
2023-05-22T02:39:07.928Z,39.96
2023-05-22T02:40:07.944Z,38.99
2023-05-22T02:41:08.028Z,40.28
2023-05-22T02:42:07.946Z,41.25
2023-05-22T02:43:07.902Z,40.77
2023-05-22T02:44:07.887Z,40.28
2023-05-22T02:45:07.908Z,40.61
2023-05-22T02:46:07.921Z,41.41
2023-05-22T02:47:07.902Z,40.77
2023-05-22T02:48:07.925Z,40.44
2023-05-22T02:49:07.867Z,39.16
2023-05-22T02:50:07.858Z,40.28
2023-05-22T02:51:07.897Z,40.77
2023-05-22T02:52:07.832Z,39.80
2023-05-22T02:53:07.830Z,40.77
2023-05-22T02:54:07.835Z,40.28
2023-05-22T02:55:07.810Z,40.61
2023-05-22T02:56:07.854Z,40.12
2023-05-22T02:57:07.795Z,40.77
2023-05-22T02:58:07.794Z,40.12
2023-05-22T02:59:07.791Z,40.28
2023-05-22T03:00:07.815Z,39.96
2023-05-22T03:01:07.806Z,40.44
2023-05-22T03:02:08.009Z,39.96
2023-05-22T03:03:07.804Z,40.12
2023-05-22T03:04:07.868Z,40.28
2023-05-22T03:05:07.758Z,40.77
2023-05-22T03:06:07.766Z,39.96
2023-05-22T03:07:07.769Z,39.64
2023-05-22T03:08:07.724Z,40.28
2023-05-22T03:09:07.727Z,41.73
2023-05-22T03:10:07.759Z,40.77
2023-05-22T03:11:07.729Z,40.44
2023-05-22T03:12:07.713Z,39.64
2023-05-22T03:13:07.688Z,39.64
2023-05-22T03:14:07.724Z,40.12
2023-05-22T03:15:07.957Z,40.12
2023-05-22T03:16:07.751Z,41.41
2023-05-22T03:17:07.681Z,40.44
2023-05-22T03:18:07.717Z,39.64
2023-05-22T03:19:07.769Z,39.64
2023-05-22T03:20:07.674Z,39.80
2023-05-22T03:21:07.639Z,40.93
2023-05-22T03:22:07.678Z,41.57
2023-05-22T03:23:07.640Z,40.77
2023-05-22T03:24:07.621Z,40.12
2023-05-22T03:25:07.649Z,40.12
2023-05-22T03:26:07.636Z,40.77
2023-05-22T03:27:07.618Z,41.25
2023-05-22T03:28:07.628Z,40.77
2023-05-22T03:29:07.732Z,40.93
2023-05-22T03:30:07.586Z,40.61
2023-05-22T03:31:07.589Z,41.73
2023-05-22T03:32:07.562Z,40.77
2023-05-22T03:33:07.722Z,41.57
2023-05-22T03:34:07.596Z,40.61
2023-05-22T03:35:07.577Z,40.93
2023-05-22T03:36:07.537Z,42.06
2023-05-22T03:37:07.547Z,40.12
2023-05-22T03:38:07.543Z,41.57
2023-05-22T03:39:07.535Z,40.93
2023-05-22T03:40:07.524Z,40.77
2023-05-22T03:41:07.510Z,40.61
2023-05-22T03:42:07.499Z,40.44
2023-05-22T03:43:07.564Z,40.12
2023-05-22T03:44:07.485Z,42.06
2023-05-22T03:45:07.494Z,40.12
2023-05-22T03:46:07.539Z,40.93
2023-05-22T03:47:07.484Z,40.93
2023-05-22T03:48:08.502Z,39.96
2023-05-22T03:49:07.471Z,40.61
2023-05-22T03:50:07.442Z,41.25
2023-05-22T03:51:07.436Z,39.80
2023-05-22T03:52:07.453Z,41.25
2023-05-22T03:53:07.665Z,40.61
2023-05-22T03:54:07.451Z,41.09
2023-05-22T03:55:07.466Z,40.77
2023-05-22T03:56:08.424Z,40.61
2023-05-22T03:57:07.471Z,40.93
2023-05-22T03:58:07.396Z,40.77
2023-05-22T03:59:07.438Z,40.61
2023-05-22T04:00:07.415Z,40.61
2023-05-22T04:01:07.451Z,40.93
2023-05-22T04:02:07.425Z,40.77
2023-05-22T04:03:07.510Z,41.25
2023-05-22T04:04:07.357Z,39.96
2023-05-22T04:05:07.396Z,40.12
2023-05-22T04:06:07.324Z,40.28
2023-05-22T04:07:07.357Z,42.22
2023-05-22T04:08:07.350Z,40.93
2023-05-22T04:09:07.308Z,40.12
2023-05-22T04:10:07.297Z,39.96
2023-05-22T04:11:07.306Z,40.77
2023-05-22T04:12:07.310Z,40.44
2023-05-22T04:13:07.303Z,40.77
2023-05-22T04:14:07.273Z,41.57
2023-05-22T04:15:07.280Z,41.25
2023-05-22T04:16:07.312Z,40.28
2023-05-22T04:17:07.257Z,41.25
2023-05-22T04:18:07.274Z,42.06
2023-05-22T04:19:07.247Z,42.22
2023-05-22T04:20:07.320Z,39.96
2023-05-22T04:21:07.222Z,41.41
2023-05-22T04:22:07.211Z,42.06
2023-05-22T04:23:07.215Z,39.64
2023-05-22T04:24:07.501Z,39.16
2023-05-22T04:25:07.217Z,41.09
2023-05-22T04:26:07.193Z,39.64
2023-05-22T04:27:07.183Z,41.09
2023-05-22T04:28:07.179Z,42.22
2023-05-22T04:29:07.189Z,41.09
2023-05-22T04:30:07.176Z,41.73
2023-05-22T04:31:07.222Z,40.77
2023-05-22T04:32:07.138Z,40.61
2023-05-22T04:33:07.176Z,41.09
2023-05-22T04:34:07.148Z,40.61
2023-05-22T04:35:07.149Z,40.93
2023-05-22T04:36:07.124Z,41.57
2023-05-22T04:37:07.128Z,39.48
2023-05-22T04:38:07.108Z,40.77
2023-05-22T04:39:07.150Z,39.96
2023-05-22T04:40:07.105Z,41.41
2023-05-22T04:41:07.088Z,40.61
2023-05-22T04:42:07.118Z,39.48
2023-05-22T04:43:07.108Z,41.89
2023-05-22T04:44:07.102Z,42.22
2023-05-22T04:45:07.080Z,39.80
2023-05-22T04:46:07.041Z,40.93
2023-05-22T04:47:08.216Z,41.41
2023-05-22T04:48:08.134Z,40.61
2023-05-22T04:49:07.043Z,40.77
2023-05-22T04:50:07.012Z,41.89
2023-05-22T04:51:06.999Z,39.80
2023-05-22T04:52:07.001Z,40.12
2023-05-22T04:53:07.061Z,39.96
2023-05-22T04:54:06.972Z,40.77
2023-05-22T04:55:07.022Z,40.44
2023-05-22T04:56:06.991Z,40.93
2023-05-22T04:57:06.975Z,39.32
2023-05-22T04:58:06.978Z,38.83
2023-05-22T04:59:06.985Z,40.93
2023-05-22T05:00:06.926Z,39.64
2023-05-22T05:01:07.983Z,38.99
2023-05-22T05:02:06.936Z,40.12
2023-05-22T05:03:08.129Z,38.67
2023-05-22T05:04:07.032Z,41.41
2023-05-22T05:05:06.909Z,38.67
2023-05-22T05:06:06.903Z,40.44
2023-05-22T05:07:06.902Z,40.93
2023-05-22T05:08:06.876Z,42.06
2023-05-22T05:09:06.907Z,39.80
2023-05-22T05:10:06.852Z,40.93
2023-05-22T05:11:06.870Z,39.48
2023-05-22T05:12:06.896Z,39.48
2023-05-22T05:13:06.854Z,39.32
2023-05-22T05:14:06.858Z,40.12
2023-05-22T05:15:06.864Z,42.06
2023-05-22T05:16:06.893Z,39.96
2023-05-22T05:17:06.848Z,40.44
2023-05-22T05:18:06.912Z,39.16
2023-05-22T05:19:06.847Z,40.77
2023-05-22T05:20:06.821Z,41.41
2023-05-22T05:21:06.851Z,38.51
2023-05-22T05:22:06.810Z,38.67
2023-05-22T05:23:06.831Z,39.64
2023-05-22T05:24:06.839Z,39.32
2023-05-22T05:25:06.824Z,39.16
2023-05-22T05:26:06.763Z,40.28
2023-05-22T05:27:06.905Z,39.64
2023-05-22T05:28:06.749Z,39.80
2023-05-22T05:29:06.744Z,41.57
2023-05-22T05:30:06.746Z,39.16
2023-05-22T05:31:06.734Z,41.73
2023-05-22T05:32:06.755Z,37.71
2023-05-22T05:33:06.744Z,40.61
2023-05-22T05:34:06.704Z,39.64
2023-05-22T05:35:06.733Z,40.12
2023-05-22T05:36:06.686Z,38.99
2023-05-22T05:37:06.782Z,37.54
2023-05-22T05:38:06.712Z,38.99
2023-05-22T05:39:06.689Z,39.64
2023-05-22T05:40:06.729Z,38.03
2023-05-22T05:41:06.662Z,40.44
2023-05-22T05:42:06.646Z,38.67
2023-05-22T05:43:08.548Z,38.51
2023-05-22T05:44:07.667Z,40.12
2023-05-22T05:45:06.720Z,41.09
2023-05-22T05:46:06.647Z,37.87
2023-05-22T05:47:06.631Z,39.64
2023-05-22T05:48:06.690Z,38.51
2023-05-22T05:49:06.609Z,38.99
2023-05-22T05:50:06.593Z,38.03
2023-05-22T05:51:06.582Z,38.99
2023-05-22T05:52:06.572Z,40.28
2023-05-22T05:53:06.590Z,37.54
2023-05-22T05:54:06.593Z,39.16
2023-05-22T05:55:06.581Z,37.87
2023-05-22T05:56:06.550Z,38.83
2023-05-22T05:57:06.552Z,39.64
2023-05-22T05:58:06.553Z,40.28
2023-05-22T05:59:06.538Z,37.54
2023-05-22T06:00:06.808Z,38.67
2023-05-22T06:01:06.527Z,38.19
2023-05-22T06:02:06.514Z,36.58
2023-05-22T06:03:06.627Z,37.71
2023-05-22T06:04:06.536Z,38.67
2023-05-22T06:05:06.576Z,37.06
2023-05-22T06:06:06.495Z,37.38
2023-05-22T06:07:06.512Z,37.38
2023-05-22T06:08:06.470Z,37.54
2023-05-22T06:09:06.606Z,36.74
2023-05-22T06:10:06.488Z,38.83
2023-05-22T06:11:06.440Z,37.22
2023-05-22T06:12:06.459Z,37.54
2023-05-22T06:13:06.512Z,37.71
2023-05-22T06:14:06.432Z,39.16
2023-05-22T06:15:06.420Z,36.74
2023-05-22T06:16:06.903Z,38.35
2023-05-22T06:17:07.420Z,36.90
2023-05-22T06:18:06.429Z,38.03
2023-05-22T06:19:06.466Z,38.51
2023-05-22T06:20:06.391Z,37.22
2023-05-22T06:21:06.394Z,37.38
2023-05-22T06:22:06.373Z,36.90
2023-05-22T06:23:06.358Z,37.22
2023-05-22T06:24:06.366Z,37.54
2023-05-22T06:25:06.363Z,36.58
2023-05-22T06:26:06.355Z,39.16
2023-05-22T06:27:06.335Z,38.19
2023-05-22T06:28:06.524Z,35.93
2023-05-22T06:29:06.348Z,37.06
2023-05-22T06:30:06.368Z,35.61
2023-05-22T06:31:06.330Z,36.42
2023-05-22T06:32:06.377Z,36.90
2023-05-22T06:33:06.379Z,36.90
2023-05-22T06:34:07.268Z,35.93
2023-05-22T06:35:06.303Z,36.09
2023-05-22T06:36:07.120Z,37.06
2023-05-22T06:37:06.272Z,37.54
2023-05-22T06:38:06.262Z,39.64
2023-05-22T06:39:06.277Z,37.22
2023-05-22T06:40:06.320Z,35.93
2023-05-22T06:41:06.253Z,38.67
2023-05-22T06:42:06.241Z,35.13
2023-05-22T06:43:06.228Z,35.93
2023-05-22T06:44:06.220Z,38.03
2023-05-22T06:45:06.221Z,37.06
2023-05-22T06:46:06.268Z,36.90
2023-05-22T06:47:06.200Z,36.90
2023-05-22T06:48:06.256Z,36.42
2023-05-22T06:49:06.662Z,36.74
2023-05-22T06:50:06.186Z,36.58
2023-05-22T06:51:06.168Z,37.54
2023-05-22T06:52:06.176Z,35.77
2023-05-22T06:53:06.169Z,35.93
2023-05-22T06:54:06.171Z,35.45
2023-05-22T06:55:06.148Z,37.06
2023-05-22T06:56:06.128Z,36.09
2023-05-22T06:57:06.132Z,34.64
2023-05-22T06:58:06.117Z,37.06
2023-05-22T06:59:06.412Z,36.09
2023-05-22T07:00:07.278Z,38.03
2023-05-22T07:01:06.166Z,35.61
2023-05-22T07:02:06.096Z,35.61
2023-05-22T07:03:06.133Z,35.61
2023-05-22T07:04:06.106Z,37.54
2023-05-22T07:05:06.083Z,35.61
2023-05-22T07:06:06.124Z,36.09
2023-05-22T07:07:06.075Z,37.87
2023-05-22T07:08:06.071Z,37.06
2023-05-22T07:09:06.040Z,37.06
2023-05-22T07:10:06.050Z,37.22
2023-05-22T07:11:06.022Z,37.22
2023-05-22T07:12:06.017Z,37.06
2023-05-22T07:13:06.066Z,37.54
2023-05-22T07:14:06.000Z,34.64
2023-05-22T07:15:05.990Z,35.61
2023-05-22T07:16:06.014Z,35.45
2023-05-22T07:17:06.002Z,36.09
2023-05-22T07:18:06.080Z,38.03
2023-05-22T07:19:05.981Z,39.16
2023-05-22T07:20:05.968Z,36.42
2023-05-22T07:21:06.592Z,36.58
2023-05-22T07:22:05.981Z,36.42
2023-05-22T07:23:05.940Z,36.09
2023-05-22T07:24:05.987Z,36.25
2023-05-22T07:25:05.939Z,35.45
2023-05-22T07:26:05.941Z,38.19
2023-05-22T07:27:05.926Z,36.09
2023-05-22T07:28:05.924Z,35.61
2023-05-22T07:29:06.914Z,35.77
2023-05-22T07:30:05.896Z,37.22
2023-05-22T07:31:05.924Z,35.13
2023-05-22T07:32:05.994Z,35.61
2023-05-22T07:33:05.915Z,35.13
2023-05-22T07:34:05.873Z,36.25
2023-05-22T07:35:05.873Z,36.42
2023-05-22T07:36:05.887Z,36.09
2023-05-22T07:37:05.867Z,34.97
2023-05-22T07:38:05.854Z,35.61
2023-05-22T07:39:05.827Z,37.87
2023-05-22T07:40:06.826Z,39.64
2023-05-22T07:41:05.840Z,39.48
2023-05-22T07:42:05.854Z,35.13
2023-05-22T07:43:05.822Z,36.90
2023-05-22T07:44:05.801Z,36.74
2023-05-22T07:45:05.822Z,35.45
2023-05-22T07:46:05.867Z,36.25
2023-05-22T07:47:05.787Z,34.32
2023-05-22T07:48:05.853Z,34.16
2023-05-22T07:49:05.764Z,34.00
2023-05-22T07:50:05.775Z,34.32
2023-05-22T07:51:05.756Z,33.68
2023-05-22T07:52:05.744Z,34.32
2023-05-22T07:53:05.730Z,35.13
2023-05-22T07:54:05.736Z,34.64
2023-05-22T07:55:05.739Z,33.52
2023-05-22T07:56:05.706Z,32.87
2023-05-22T07:57:05.702Z,33.03
2023-05-22T07:58:05.693Z,34.16
2023-05-22T07:59:05.710Z,33.84
2023-05-22T08:00:05.761Z,33.03
2023-05-22T08:01:07.346Z,32.55
2023-05-22T08:02:05.702Z,34.64
2023-05-22T08:03:05.746Z,34.80
2023-05-22T08:04:05.993Z,34.16
2023-05-22T08:05:05.715Z,34.97
2023-05-22T08:06:05.650Z,35.45
2023-05-22T08:07:05.667Z,34.00
2023-05-22T08:08:05.686Z,32.87
2023-05-22T08:09:05.645Z,34.16
2023-05-22T08:10:05.612Z,33.84
2023-05-22T08:11:05.888Z,33.68
2023-05-22T08:12:05.675Z,31.90
2023-05-22T08:13:05.639Z,33.35
2023-05-22T08:14:05.591Z,32.71
2023-05-22T08:15:05.645Z,34.80
2023-05-22T08:16:05.606Z,32.39
2023-05-22T08:17:05.632Z,35.29
2023-05-22T08:18:05.598Z,32.07
2023-05-22T08:19:05.702Z,34.64
2023-05-22T08:20:05.925Z,32.87
2023-05-22T08:21:05.568Z,36.58
2023-05-22T08:22:05.521Z,34.16
2023-05-22T08:23:05.539Z,33.84
2023-05-22T08:24:05.546Z,33.19
2023-05-22T08:25:05.530Z,34.80
2023-05-22T08:26:05.509Z,35.29
2023-05-22T08:27:05.527Z,34.64
2023-05-22T08:28:05.516Z,32.39
2023-05-22T08:29:05.489Z,35.45
2023-05-22T08:30:05.491Z,31.26
2023-05-22T08:31:05.495Z,32.39
2023-05-22T08:32:05.538Z,34.80
2023-05-22T08:33:05.493Z,32.23
2023-05-22T08:34:05.441Z,31.58
2023-05-22T08:35:05.447Z,33.52
2023-05-22T08:36:05.486Z,31.26
2023-05-22T08:37:05.440Z,35.61
2023-05-22T08:38:05.445Z,33.03
2023-05-22T08:39:05.422Z,32.07
2023-05-22T08:40:05.546Z,33.19
2023-05-22T08:41:06.486Z,34.00
2023-05-22T08:42:05.393Z,33.03
2023-05-22T08:43:05.389Z,32.71
2023-05-22T08:44:05.407Z,34.80
2023-05-22T08:45:05.376Z,32.55
2023-05-22T08:46:05.375Z,32.07
2023-05-22T08:47:05.398Z,33.03
2023-05-22T08:48:05.463Z,32.55
2023-05-22T08:49:05.359Z,31.90
2023-05-22T08:50:05.355Z,30.29
2023-05-22T08:51:05.378Z,31.26
2023-05-22T08:52:05.388Z,29.97
2023-05-22T08:53:05.313Z,31.26
2023-05-22T08:54:05.313Z,36.09
2023-05-22T08:55:05.513Z,33.35
2023-05-22T08:56:05.303Z,32.07
2023-05-22T08:57:05.293Z,32.71
2023-05-22T08:58:05.289Z,31.26
2023-05-22T08:59:05.289Z,31.10
2023-05-22T09:00:05.305Z,31.58
2023-05-22T09:01:05.348Z,31.74
2023-05-22T09:02:06.664Z,33.52
2023-05-22T09:03:05.361Z,30.94
2023-05-22T09:04:05.372Z,35.13
2023-05-22T09:05:05.296Z,34.32
2023-05-22T09:06:05.253Z,32.55
2023-05-22T09:07:05.289Z,32.23
2023-05-22T09:08:18.923Z,34.32
2023-05-22T09:09:07.421Z,33.84
2023-05-22T09:10:05.238Z,34.16
2023-05-22T09:11:05.222Z,34.64
2023-05-22T09:12:05.220Z,36.74
2023-05-22T09:13:05.349Z,34.48
2023-05-22T09:14:05.208Z,34.16
2023-05-22T09:15:05.194Z,37.22
2023-05-22T09:16:05.209Z,35.61
2023-05-22T09:17:05.212Z,36.09
2023-05-22T09:18:05.227Z,33.84
2023-05-22T09:19:05.210Z,33.84
2023-05-22T09:20:05.145Z,34.48
2023-05-22T09:21:09.049Z,35.29
2023-05-22T09:22:07.143Z,33.35
2023-05-22T09:23:05.138Z,34.64
2023-05-22T09:24:05.178Z,36.42
2023-05-22T09:25:05.180Z,34.00
2023-05-22T09:26:05.110Z,36.42
2023-05-22T09:27:05.113Z,34.80
2023-05-22T09:28:05.113Z,35.61
2023-05-22T09:29:05.302Z,32.55
2023-05-22T09:30:05.072Z,34.64
2023-05-22T09:31:05.138Z,35.61
2023-05-22T09:32:05.108Z,35.93
2023-05-22T09:33:05.136Z,32.87
2023-05-22T09:34:05.121Z,33.03
2023-05-22T09:35:05.067Z,30.62
2023-05-22T09:36:05.052Z,34.80
2023-05-22T09:37:05.219Z,32.87
2023-05-22T09:38:05.083Z,31.26
2023-05-22T09:39:05.016Z,31.42
2023-05-22T09:40:05.161Z,32.55
2023-05-22T09:41:05.053Z,33.19
2023-05-22T09:42:05.039Z,33.52
2023-05-22T09:43:05.024Z,32.07
2023-05-22T09:44:04.987Z,32.39
2023-05-22T09:45:04.977Z,34.16
2023-05-22T09:46:05.046Z,35.77
2023-05-22T09:47:04.985Z,33.84
2023-05-22T09:48:05.010Z,35.29
2023-05-22T09:49:04.966Z,37.38
2023-05-22T09:50:04.956Z,32.55
2023-05-22T09:51:04.967Z,34.32
2023-05-22T09:52:04.929Z,34.80
2023-05-22T09:53:04.986Z,32.87
2023-05-22T09:54:04.922Z,31.90
2023-05-22T09:55:04.933Z,32.23
2023-05-22T09:56:04.953Z,31.10
2023-05-22T09:57:04.925Z,31.90
2023-05-22T09:58:04.890Z,32.71
2023-05-22T09:59:04.933Z,30.94
2023-05-22T10:00:04.929Z,30.62
2023-05-22T10:01:04.912Z,33.35
2023-05-22T10:02:05.007Z,31.90
2023-05-22T10:03:04.878Z,32.87
2023-05-22T10:04:05.001Z,34.00
2023-05-22T10:05:04.872Z,32.87
2023-05-22T10:06:04.883Z,33.35
2023-05-22T10:07:04.833Z,35.61
2023-05-22T10:08:04.843Z,32.39
2023-05-22T10:09:04.871Z,32.71
2023-05-22T10:10:04.805Z,30.62
2023-05-22T10:11:04.812Z,33.68
2023-05-22T10:12:04.910Z,33.52
2023-05-22T10:13:04.806Z,31.26
2023-05-22T10:14:04.813Z,31.26
2023-05-22T10:15:04.800Z,30.94
2023-05-22T10:16:04.846Z,28.84
2023-05-22T10:17:04.867Z,30.78
2023-05-22T10:18:04.780Z,30.94
2023-05-22T10:19:04.780Z,30.13
2023-05-22T10:20:04.739Z,31.42
2023-05-22T10:21:04.748Z,31.10
2023-05-22T10:22:04.729Z,29.33
2023-05-22T10:23:04.745Z,30.29
2023-05-22T10:24:04.764Z,31.74
2023-05-22T10:25:04.724Z,29.97
2023-05-22T10:26:04.712Z,29.49
2023-05-22T10:27:04.698Z,31.42
2023-05-22T10:28:04.821Z,41.09
2023-05-22T10:29:04.707Z,29.81
2023-05-22T10:30:04.668Z,30.94
2023-05-22T10:31:04.672Z,32.07
2023-05-22T10:32:04.696Z,29.17
2023-05-22T10:33:04.839Z,32.71
2023-05-22T10:34:04.724Z,46.57
2023-05-22T10:35:04.656Z,35.13
2023-05-22T10:36:04.647Z,35.61
2023-05-22T10:37:16.669Z,31.42
2023-05-22T10:38:06.663Z,32.07
2023-05-22T10:39:04.649Z,30.13
2023-05-22T10:40:04.655Z,28.68
2023-05-22T10:41:04.607Z,30.94
2023-05-22T10:42:04.660Z,31.26
2023-05-22T10:43:04.623Z,28.36
2023-05-22T10:44:04.704Z,31.90
2023-05-22T10:45:04.600Z,28.52
2023-05-22T10:46:04.669Z,33.03
2023-05-22T10:47:04.617Z,31.10
2023-05-22T10:48:04.671Z,31.26
2023-05-22T10:49:04.588Z,31.10
2023-05-22T10:50:04.585Z,29.97
2023-05-22T10:51:04.624Z,30.29
2023-05-22T10:52:04.591Z,33.03
2023-05-22T10:53:04.564Z,31.90
2023-05-22T10:54:04.548Z,30.78
2023-05-22T10:55:04.556Z,31.10
2023-05-22T10:56:04.545Z,32.55
2023-05-22T10:57:04.524Z,37.71
2023-05-22T10:58:05.030Z,34.32
2023-05-22T10:59:04.515Z,34.16
2023-05-22T11:00:04.625Z,35.61
2023-05-22T11:01:04.524Z,33.19
2023-05-22T11:02:04.596Z,29.17
2023-05-22T11:03:17.210Z,28.68
2023-05-22T11:04:06.496Z,29.65
2023-05-22T11:05:04.585Z,28.20
2023-05-22T11:06:04.512Z,28.52
2023-05-22T11:07:04.524Z,31.10
2023-05-22T11:08:04.474Z,30.78
2023-05-22T11:09:04.466Z,29.33
2023-05-22T11:10:04.495Z,29.17
2023-05-22T11:11:04.505Z,30.78
2023-05-22T11:12:04.465Z,29.17
2023-05-22T11:13:04.452Z,32.23
2023-05-22T11:14:04.503Z,28.68
2023-05-22T11:15:04.445Z,29.00
2023-05-22T11:16:04.527Z,29.97
2023-05-22T11:17:04.476Z,28.84
2023-05-22T11:18:04.462Z,29.00
2023-05-22T11:19:18.589Z,30.94
2023-05-22T11:20:06.595Z,31.26
2023-05-22T11:21:04.398Z,30.78
2023-05-22T11:22:04.402Z,29.17
2023-05-22T11:23:04.389Z,30.94
2023-05-22T11:24:04.453Z,27.71
2023-05-22T11:25:04.378Z,30.78
2023-05-22T11:26:04.428Z,29.65
2023-05-22T11:27:04.427Z,28.20
2023-05-22T11:28:04.356Z,28.84
2023-05-22T11:29:04.399Z,30.62
2023-05-22T11:30:04.358Z,29.97
2023-05-22T11:31:04.453Z,27.39
2023-05-22T11:32:04.416Z,28.52
2023-05-22T11:33:04.383Z,26.91
2023-05-22T11:34:04.412Z,29.97
2023-05-22T11:35:04.322Z,31.74
2023-05-22T11:36:04.303Z,31.10
2023-05-22T11:37:04.294Z,26.91
2023-05-22T11:38:04.356Z,31.90
2023-05-22T11:39:04.296Z,31.90
2023-05-22T11:40:04.287Z,30.94
2023-05-22T11:41:04.344Z,27.71
2023-05-22T11:42:04.313Z,29.97
2023-05-22T11:43:04.303Z,26.59
2023-05-22T11:44:04.302Z,26.59
2023-05-22T11:45:04.241Z,30.45
2023-05-22T11:46:04.299Z,27.23
2023-05-22T11:47:04.227Z,27.39
2023-05-22T11:48:04.369Z,28.68
2023-05-22T11:49:04.219Z,26.59
2023-05-22T11:50:04.250Z,27.23
2023-05-22T11:51:04.214Z,29.49
2023-05-22T11:52:04.210Z,28.52
2023-05-22T11:53:04.200Z,29.81
2023-05-22T11:54:04.172Z,30.13
2023-05-22T11:55:04.241Z,28.52
2023-05-22T11:56:04.163Z,27.23
2023-05-22T11:57:04.168Z,27.23
2023-05-22T11:58:04.159Z,27.07
2023-05-22T11:59:04.186Z,26.91
2023-05-22T12:00:04.161Z,32.07
2023-05-22T12:01:04.145Z,26.43
2023-05-22T12:02:04.156Z,26.43
2023-05-22T12:03:04.181Z,27.23
2023-05-22T12:04:04.300Z,28.04
2023-05-22T12:05:04.125Z,30.29
2023-05-22T12:06:04.147Z,26.59
2023-05-22T12:07:04.094Z,27.07
2023-05-22T12:08:04.136Z,28.20
2023-05-22T12:09:04.060Z,27.55
2023-05-22T12:10:04.052Z,26.91
2023-05-22T12:11:04.072Z,26.59
2023-05-22T12:12:04.032Z,26.91
2023-05-22T12:13:05.037Z,26.10
2023-05-22T12:14:04.021Z,27.39
2023-05-22T12:15:04.033Z,26.91
2023-05-22T12:16:04.104Z,26.91
2023-05-22T12:17:04.004Z,26.75
2023-05-22T12:18:04.060Z,28.68
2023-05-22T12:19:04.023Z,28.36
2023-05-22T12:20:04.102Z,26.91
2023-05-22T12:21:03.977Z,26.75
2023-05-22T12:22:03.969Z,26.59
2023-05-22T12:23:03.964Z,27.23
2023-05-22T12:24:03.980Z,28.68
2023-05-22T12:25:03.963Z,27.71
2023-05-22T12:26:03.988Z,30.13
2023-05-22T12:27:03.928Z,27.07
2023-05-22T12:28:03.919Z,29.00
2023-05-22T12:29:04.002Z,26.75
2023-05-22T12:30:03.937Z,26.91
2023-05-22T12:31:03.916Z,27.55
2023-05-22T12:32:03.960Z,27.88
2023-05-22T12:33:03.963Z,28.04
2023-05-22T12:34:03.918Z,26.59
2023-05-22T12:35:03.891Z,26.43
2023-05-22T12:36:04.948Z,28.36
2023-05-22T12:37:03.886Z,26.91
2023-05-22T12:38:03.879Z,27.07
2023-05-22T12:39:03.894Z,26.91
2023-05-22T12:40:03.898Z,27.39
2023-05-22T12:41:03.827Z,26.59
2023-05-22T12:42:03.827Z,26.91
2023-05-22T12:43:03.838Z,26.75
2023-05-22T12:44:03.801Z,26.91
2023-05-22T12:45:03.820Z,26.91
2023-05-22T12:46:03.817Z,26.91
2023-05-22T12:47:03.797Z,28.04
2023-05-22T12:48:03.832Z,26.91
2023-05-22T12:49:03.776Z,26.91
2023-05-22T12:50:03.760Z,26.91
2023-05-22T12:51:03.774Z,27.55
2023-05-22T12:52:03.757Z,26.26